sensor_id;sensor_type;location;lat;lon;timestamp;pressure;altitude;pressure_sealevel;temperature;humidity
3796;BME280;1913;50.660;7.834;2022-11-20T00:00:08;96679.47;;;-0.17;100.00
3796;BME280;1913;50.660;7.834;2022-11-20T00:02:33;96680.00;;;-0.13;100.00
3796;BME280;1913;50.660;7.834;2022-11-20T00:04:59;96681.16;;;-0.08;100.00
3796;BME280;1913;50.660;7.834;2022-11-20T00:07:24;96680.72;;;-0.03;100.00
3796;BME280;1913;50.660;7.834;2022-11-20T00:09:49;96681.31;;;0.09;100.00
3796;BME280;1913;50.660;7.834;2022-11-20T00:12:15;96678.88;;;0.07;100.00
3796;BME280;1913;50.660;7.834;2022-11-20T00:14:41;96667.13;;;0.13;100.00
3796;BME280;1913;50.660;7.834;2022-11-20T00:17:06;96670.97;;;0.09;100.00
3796;BME280;1913;50.660;7.834;2022-11-20T00:19:32;96667.28;;;0.11;100.00
3796;BME280;1913;50.660;7.834;2022-11-20T00:21:57;96667.13;;;0.13;100.00
3796;BME280;1913;50.660;7.834;2022-11-20T00:24:23;96667.34;;;0.02;100.00
3796;BME280;1913;50.660;7.834;2022-11-20T00:26:48;96669.88;;;-0.07;100.00
3796;BME280;1913;50.660;7.834;2022-11-20T00:29:13;96666.84;;;-0.02;100.00
3796;BME280;1913;50.660;7.834;2022-11-20T00:31:39;96670.03;;;-0.08;100.00
3796;BME280;1913;50.660;7.834;2022-11-20T00:34:04;96670.81;;;-0.08;100.00
3796;BME280;1913;50.660;7.834;2022-11-20T00:36:33;96663.31;;;-0.19;100.00
3796;BME280;1913;50.660;7.834;2022-11-20T00:38:59;96666.03;;;-0.03;100.00
3796;BME280;1913;50.660;7.834;2022-11-20T00:41:26;96664.47;;;0.05;100.00
3796;BME280;1913;50.660;7.834;2022-11-20T00:43:53;96664.91;;;-0.18;100.00
3796;BME280;1913;50.660;7.834;2022-11-20T00:46:21;96660.78;;;-0.11;100.00
3796;BME280;1913;50.660;7.834;2022-11-20T00:48:47;96666.25;;;0.04;100.00
3796;BME280;1913;50.660;7.834;2022-11-20T00:51:14;96661.81;;;-0.04;100.00
3796;BME280;1913;50.660;7.834;2022-11-20T00:53:40;96666.28;;;-0.14;100.00
3796;BME280;1913;50.660;7.834;2022-11-20T00:56:07;96670.69;;;-0.24;100.00
3796;BME280;1913;50.660;7.834;2022-11-20T00:58:36;96668.69;;;-0.12;100.00
3796;BME280;1913;50.660;7.834;2022-11-20T01:01:13;96660.28;;;-0.14;100.00
3796;BME280;1913;50.660;7.834;2022-11-20T01:03:42;96663.69;;;-0.14;100.00
3796;BME280;1913;50.660;7.834;2022-11-20T01:06:14;96664.22;;;-0.10;100.00
3796;BME280;1913;50.660;7.834;2022-11-20T01:08:40;96670.47;;;-0.13;100.00
3796;BME280;1913;50.660;7.834;2022-11-20T01:11:08;96663.97;;;-0.17;100.00
3796;BME280;1913;50.660;7.834;2022-11-20T01:13:35;96662.56;;;-0.11;100.00
3796;BME280;1913;50.660;7.834;2022-11-20T01:16:18;96671.28;;;-0.12;100.00
3796;BME280;1913;50.660;7.834;2022-11-20T01:18:46;96659.69;;;-0.08;100.00
3796;BME280;1913;50.660;7.834;2022-11-20T01:21:14;96671.44;;;-0.14;100.00
3796;BME280;1913;50.660;7.834;2022-11-20T01:23:42;96667.53;;;0.00;100.00
3796;BME280;1913;50.660;7.834;2022-11-20T01:26:11;96658.59;;;-0.06;100.00
3796;BME280;1913;50.660;7.834;2022-11-20T01:28:38;96657.78;;;-0.06;100.00
3796;BME280;1913;50.660;7.834;2022-11-20T01:31:12;96665.38;;;-0.05;100.00
3796;BME280;1913;50.660;7.834;2022-11-20T01:33:39;96661.22;;;0.03;100.00
3796;BME280;1913;50.660;7.834;2022-11-20T01:36:06;96669.94;;;0.02;100.00
3796;BME280;1913;50.660;7.834;2022-11-20T01:38:32;96670.81;;;-0.08;100.00
3796;BME280;1913;50.660;7.834;2022-11-20T01:40:58;96654.53;;;-0.08;100.00
3796;BME280;1913;50.660;7.834;2022-11-20T01:43:23;96655.03;;;-0.05;100.00
3796;BME280;1913;50.660;7.834;2022-11-20T01:45:58;96646.53;;;0.03;100.00
3796;BME280;1913;50.660;7.834;2022-11-20T01:48:28;96658.34;;;0.06;100.00
3796;BME280;1913;50.660;7.834;2022-11-20T01:50:55;96645.81;;;0.11;100.00
3796;BME280;1913;50.660;7.834;2022-11-20T01:53:26;96650.00;;;0.12;100.00
3796;BME280;1913;50.660;7.834;2022-11-20T01:55:55;96644.91;;;0.02;100.00
3796;BME280;1913;50.660;7.834;2022-11-20T01:58:25;96647.72;;;0.09;100.00
3796;BME280;1913;50.660;7.834;2022-11-20T02:00:52;96630.81;;;-0.04;100.00
3796;BME280;1913;50.660;7.834;2022-11-20T02:03:18;96634.75;;;0.01;100.00
3796;BME280;1913;50.660;7.834;2022-11-20T02:08:17;96622.38;;;-0.14;100.00
3796;BME280;1913;50.660;7.834;2022-11-20T02:10:43;96625.31;;;-0.09;100.00
3796;BME280;1913;50.660;7.834;2022-11-20T02:13:09;96631.34;;;0.00;100.00
3796;BME280;1913;50.660;7.834;2022-11-20T02:15:53;96626.19;;;0.00;100.00
3796;BME280;1913;50.660;7.834;2022-11-20T02:18:20;96626.19;;;0.00;100.00
3796;BME280;1913;50.660;7.834;2022-11-20T02:20:48;96618.94;;;-0.14;100.00
3796;BME280;1913;50.660;7.834;2022-11-20T02:23:38;96639.09;;;0.00;100.00
3796;BME280;1913;50.660;7.834;2022-11-20T02:26:07;96628.53;;;0.11;100.00
3796;BME280;1913;50.660;7.834;2022-11-20T02:28:34;96625.78;;;0.13;100.00
3796;BME280;1913;50.660;7.834;2022-11-20T02:31:00;96617.91;;;0.14;100.00
3796;BME280;1913;50.660;7.834;2022-11-20T02:33:26;96617.28;;;0.20;100.00
3796;BME280;1913;50.660;7.834;2022-11-20T02:35:51;96622.94;;;0.24;100.00
3796;BME280;1913;50.660;7.834;2022-11-20T02:38:17;96623.63;;;0.26;100.00
3796;BME280;1913;50.660;7.834;2022-11-20T02:40:43;96626.22;;;0.26;100.00
3796;BME280;1913;50.660;7.834;2022-11-20T02:43:09;96623.38;;;0.37;100.00
3796;BME280;1913;50.660;7.834;2022-11-20T02:45:34;96620.56;;;0.31;100.00
3796;BME280;1913;50.660;7.834;2022-11-20T02:48:00;96630.66;;;0.42;100.00
3796;BME280;1913;50.660;7.834;2022-11-20T02:50:25;96635.53;;;0.45;100.00
3796;BME280;1913;50.660;7.834;2022-11-20T02:52:51;96635.22;;;0.48;100.00
3796;BME280;1913;50.660;7.834;2022-11-20T02:55:16;96616.28;;;0.39;100.00
3796;BME280;1913;50.660;7.834;2022-11-20T02:57:41;96615.94;;;0.42;100.00
3796;BME280;1913;50.660;7.834;2022-11-20T03:00:07;96617.59;;;0.43;100.00
3796;BME280;1913;50.660;7.834;2022-11-20T03:02:33;96615.00;;;0.43;100.00
3796;BME280;1913;50.660;7.834;2022-11-20T03:04:59;96616.78;;;0.43;100.00
3796;BME280;1913;50.660;7.834;2022-11-20T03:07:24;96608.66;;;0.38;100.00
3796;BME280;1913;50.660;7.834;2022-11-20T03:09:49;96610.28;;;0.39;100.00
3796;BME280;1913;50.660;7.834;2022-11-20T03:12:15;96603.50;;;0.38;100.00
3796;BME280;1913;50.660;7.834;2022-11-20T03:14:40;96614.13;;;0.35;100.00
3796;BME280;1913;50.660;7.834;2022-11-20T03:17:06;96606.69;;;0.32;100.00
3796;BME280;1913;50.660;7.834;2022-11-20T03:19:31;96607.16;;;0.27;100.00
3796;BME280;1913;50.660;7.834;2022-11-20T03:21:57;96600.97;;;0.20;100.00
3796;BME280;1913;50.660;7.834;2022-11-20T03:24:22;96600.47;;;0.16;100.00
3796;BME280;1913;50.660;7.834;2022-11-20T03:26:48;96601.94;;;0.19;100.00
3796;BME280;1913;50.660;7.834;2022-11-20T03:29:13;96602.53;;;0.13;100.00
3796;BME280;1913;50.660;7.834;2022-11-20T03:31:40;96594.31;;;0.17;100.00
3796;BME280;1913;50.660;7.834;2022-11-20T03:34:07;96596.59;;;0.20;100.00
3796;BME280;1913;50.660;7.834;2022-11-20T03:36:32;96596.16;;;0.25;100.00
3796;BME280;1913;50.660;7.834;2022-11-20T03:38:58;96592.81;;;0.33;100.00
3796;BME280;1913;50.660;7.834;2022-11-20T03:41:26;96603.19;;;0.41;100.00
3796;BME280;1913;50.660;7.834;2022-11-20T03:43:54;96611.69;;;0.59;100.00
3796;BME280;1913;50.660;7.834;2022-11-20T03:46:20;96611.38;;;0.62;100.00
3796;BME280;1913;50.660;7.834;2022-11-20T03:48:46;96606.22;;;0.62;100.00
3796;BME280;1913;50.660;7.834;2022-11-20T03:53:38;96589.91;;;0.70;100.00
3796;BME280;1913;50.660;7.834;2022-11-20T03:56:04;96590.28;;;0.75;100.00
3796;BME280;1913;50.660;7.834;2022-11-20T03:58:29;96591.91;;;0.76;100.00
3796;BME280;1913;50.660;7.834;2022-11-20T04:00:55;96595.41;;;0.67;100.00
3796;BME280;1913;50.660;7.834;2022-11-20T04:03:20;96597.03;;;0.68;100.00
3796;BME280;1913;50.660;7.834;2022-11-20T04:05:45;96598.47;;;0.70;100.00
3796;BME280;1913;50.660;7.834;2022-11-20T04:08:11;96597.53;;;0.71;100.00
3796;BME280;1913;50.660;7.834;2022-11-20T04:10:36;96596.06;;;0.69;100.00
3796;BME280;1913;50.660;7.834;2022-11-20T04:13:02;96600.47;;;0.77;100.00
3796;BME280;1913;50.660;7.834;2022-11-20T04:15:28;96597.97;;;0.67;100.00
3796;BME280;1913;50.660;7.834;2022-11-20T04:17:54;96593.81;;;0.40;100.00
3796;BME280;1913;50.660;7.834;2022-11-20T04:20:19;96590.81;;;0.53;100.00
3796;BME280;1913;50.660;7.834;2022-11-20T04:22:44;96596.75;;;0.45;100.00
3796;BME280;1913;50.660;7.834;2022-11-20T04:25:10;96594.34;;;0.43;100.00
3796;BME280;1913;50.660;7.834;2022-11-20T04:27:35;96592.84;;;0.41;100.00
3796;BME280;1913;50.660;7.834;2022-11-20T04:30:01;96592.34;;;0.37;100.00
3796;BME280;1913;50.660;7.834;2022-11-20T04:32:26;96603.91;;;0.51;100.00
3796;BME280;1913;50.660;7.834;2022-11-20T04:34:51;96600.03;;;0.55;100.00
3796;BME280;1913;50.660;7.834;2022-11-20T04:37:18;96593.94;;;0.64;100.00
3796;BME280;1913;50.660;7.834;2022-11-20T04:39:44;96593.81;;;0.74;100.00
3796;BME280;1913;50.660;7.834;2022-11-20T04:42:09;96592.59;;;0.86;100.00
3796;BME280;1913;50.660;7.834;2022-11-20T04:44:53;96585.16;;;0.91;100.00
3796;BME280;1913;50.660;7.834;2022-11-20T04:47:19;96584.16;;;0.84;100.00
3796;BME280;1913;50.660;7.834;2022-11-20T04:49:44;96583.69;;;0.89;100.00
3796;BME280;1913;50.660;7.834;2022-11-20T04:52:10;96576.91;;;0.96;100.00
3796;BME280;1913;50.660;7.834;2022-11-20T04:54:35;96571.59;;;0.89;100.00
3796;BME280;1913;50.660;7.834;2022-11-20T04:57:00;96579.84;;;0.93;100.00
3796;BME280;1913;50.660;7.834;2022-11-20T04:59:26;96572.91;;;1.02;100.00
3796;BME280;1913;50.660;7.834;2022-11-20T05:01:51;96576.28;;;1.02;100.00
3796;BME280;1913;50.660;7.834;2022-11-20T05:04:17;96570.63;;;0.99;100.00
3796;BME280;1913;50.660;7.834;2022-11-20T05:06:42;96574.06;;;1.07;100.00
3796;BME280;1913;50.660;7.834;2022-11-20T05:09:07;96581.03;;;1.15;100.00
3796;BME280;1913;50.660;7.834;2022-11-20T05:11:33;96586.19;;;1.15;100.00
3796;BME280;1913;50.660;7.834;2022-11-20T05:13:58;96575.69;;;1.16;100.00
3796;BME280;1913;50.660;7.834;2022-11-20T05:16:25;96575.53;;;1.18;100.00
3796;BME280;1913;50.660;7.834;2022-11-20T05:18:52;96577.16;;;1.19;100.00
3796;BME280;1913;50.660;7.834;2022-11-20T05:21:18;96575.53;;;1.18;100.00
3796;BME280;1913;50.660;7.834;2022-11-20T05:23:44;96570.00;;;1.13;100.00
3796;BME280;1913;50.660;7.834;2022-11-20T05:26:15;96561.63;;;1.19;100.00
3796;BME280;1913;50.660;7.834;2022-11-20T05:28:41;96561.00;;;1.25;100.00
3796;BME280;1913;50.660;7.834;2022-11-20T05:31:12;96567.78;;;1.26;100.00
3796;BME280;1913;50.660;7.834;2022-11-20T05:33:40;96565.50;;;1.23;100.00
3796;BME280;1913;50.660;7.834;2022-11-20T05:36:13;96571.31;;;1.17;100.00
3796;BME280;1913;50.660;7.834;2022-11-20T05:38:41;96569.56;;;1.17;100.00
3796;BME280;1913;50.660;7.834;2022-11-20T05:41:19;96570.38;;;1.18;100.00
3796;BME280;1913;50.660;7.834;2022-11-20T05:43:52;96557.56;;;1.16;100.00
3796;BME280;1913;50.660;7.834;2022-11-20T05:46:23;96556.44;;;1.19;100.00
3796;BME280;1913;50.660;7.834;2022-11-20T05:48:50;96553.53;;;1.22;100.00
3796;BME280;1913;50.660;7.834;2022-11-20T05:51:21;96559.22;;;1.17;100.00
3796;BME280;1913;50.660;7.834;2022-11-20T05:53:47;96556.44;;;1.27;100.00
3796;BME280;1913;50.660;7.834;2022-11-20T05:56:19;96558.91;;;1.29;100.00
3796;BME280;1913;50.660;7.834;2022-11-20T05:58:52;96566.50;;;1.38;100.00
3796;BME280;1913;50.660;7.834;2022-11-20T06:01:21;96559.38;;;1.32;100.00
3796;BME280;1913;50.660;7.834;2022-11-20T06:03:55;96567.66;;;1.36;100.00
3796;BME280;1913;50.660;7.834;2022-11-20T06:06:26;96564.88;;;1.37;100.00
3796;BME280;1913;50.660;7.834;2022-11-20T06:09:27;96570.72;;;1.39;100.00
3796;BME280;1913;50.660;7.834;2022-11-20T06:12:00;96567.16;;;1.40;100.00
3796;BME280;1913;50.660;7.834;2022-11-20T06:14:30;96563.94;;;1.47;100.00
3796;BME280;1913;50.660;7.834;2022-11-20T06:17:09;96560.84;;;1.51;100.00
3796;BME280;1913;50.660;7.834;2022-11-20T06:19:35;96559.06;;;1.43;100.00
3796;BME280;1913;50.660;7.834;2022-11-20T06:22:16;96560.53;;;1.54;100.00
3796;BME280;1913;50.660;7.834;2022-11-20T06:24:45;96569.13;;;1.55;100.00
3796;BME280;1913;50.660;7.834;2022-11-20T06:27:16;96573.00;;;1.42;100.00
3796;BME280;1913;50.660;7.834;2022-11-20T06:29:56;96570.06;;;1.46;100.00
3796;BME280;1913;50.660;7.834;2022-11-20T06:32:36;96565.38;;;1.49;100.00
3796;BME280;1913;50.660;7.834;2022-11-20T06:35:12;96570.06;;;1.46;100.00
3796;BME280;1913;50.660;7.834;2022-11-20T06:37:51;96567.47;;;1.46;100.00
3796;BME280;1913;50.660;7.834;2022-11-20T06:40:31;96570.72;;;1.39;100.00
3796;BME280;1913;50.660;7.834;2022-11-20T06:42:58;96568.75;;;1.33;100.00
3796;BME280;1913;50.660;7.834;2022-11-20T06:45:25;96570.38;;;1.34;100.00
3796;BME280;1913;50.660;7.834;2022-11-20T06:47:50;96570.06;;;1.21;100.00
3796;BME280;1913;50.660;7.834;2022-11-20T06:50:16;96576.47;;;1.09;100.00
3796;BME280;1913;50.660;7.834;2022-11-20T06:52:41;96576.47;;;1.01;100.00
3796;BME280;1913;50.660;7.834;2022-11-20T06:55:07;96577.78;;;1.13;100.00
3796;BME280;1913;50.660;7.834;2022-11-20T06:57:32;96581.09;;;0.89;100.00
3796;BME280;1913;50.660;7.834;2022-11-20T06:59:58;96585.22;;;1.08;100.00
3796;BME280;1913;50.660;7.834;2022-11-20T07:02:23;96595.75;;;1.14;100.00
3796;BME280;1913;50.660;7.834;2022-11-20T07:04:48;96591.69;;;1.12;100.00
3796;BME280;1913;50.660;7.834;2022-11-20T07:07:14;96593.00;;;1.16;100.00
3796;BME280;1913;50.660;7.834;2022-11-20T07:09:39;96594.09;;;1.13;100.00
3796;BME280;1913;50.660;7.834;2022-11-20T07:12:05;96593.31;;;1.13;100.00
3796;BME280;1913;50.660;7.834;2022-11-20T07:14:30;96598.66;;;1.19;100.00
3796;BME280;1913;50.660;7.834;2022-11-20T07:16:55;96593.97;;;1.23;100.00
3796;BME280;1913;50.660;7.834;2022-11-20T07:19:21;96600.00;;;1.32;100.00
3796;BME280;1913;50.660;7.834;2022-11-20T07:21:46;96601.44;;;1.34;100.00
3796;BME280;1913;50.660;7.834;2022-11-20T07:24:11;96603.72;;;1.46;100.00
3796;BME280;1913;50.660;7.834;2022-11-20T07:26:37;96608.28;;;1.52;100.00
3796;BME280;1913;50.660;7.834;2022-11-20T07:29:02;96603.75;;;1.54;100.00
3796;BME280;1913;50.660;7.834;2022-11-20T07:31:28;96602.09;;;1.36;100.00
3796;BME280;1913;50.660;7.834;2022-11-20T07:33:53;96608.44;;;1.50;100.00
3796;BME280;1913;50.660;7.834;2022-11-20T07:36:19;96607.28;;;1.36;100.00
3796;BME280;1913;50.660;7.834;2022-11-20T07:38:44;96609.56;;;1.48;100.00
3796;BME280;1913;50.660;7.834;2022-11-20T07:41:10;96611.78;;;1.34;100.00
3796;BME280;1913;50.660;7.834;2022-11-20T07:43:35;96619.75;;;1.41;100.00
3796;BME280;1913;50.660;7.834;2022-11-20T07:46:01;96615.06;;;1.44;100.00
3796;BME280;1913;50.660;7.834;2022-11-20T07:48:26;96621.38;;;1.50;100.00
3796;BME280;1913;50.660;7.834;2022-11-20T07:50:55;96620.41;;;1.43;100.00
3796;BME280;1913;50.660;7.834;2022-11-20T07:53:21;96622.84;;;1.53;100.00
3796;BME280;1913;50.660;7.834;2022-11-20T07:55:47;96622.69;;;1.46;100.00
3796;BME280;1913;50.660;7.834;2022-11-20T07:58:13;96619.78;;;1.57;100.00
3796;BME280;1913;50.660;7.834;2022-11-20T08:00:42;96626.88;;;1.47;100.00
3796;BME280;1913;50.660;7.834;2022-11-20T08:03:07;96625.41;;;1.44;100.00
3796;BME280;1913;50.660;7.834;2022-11-20T08:05:33;96632.69;;;1.41;100.00
3796;BME280;1913;50.660;7.834;2022-11-20T08:07:58;96638.22;;;1.62;100.00
3796;BME280;1913;50.660;7.834;2022-11-20T08:10:24;96635.47;;;1.56;100.00
3796;BME280;1913;50.660;7.834;2022-11-20T08:12:51;96635.16;;;1.59;100.00
3796;BME280;1913;50.660;7.834;2022-11-20T08:15:36;96633.38;;;1.59;100.00
3796;BME280;1913;50.660;7.834;2022-11-20T08:18:07;96636.28;;;1.56;100.00
3796;BME280;1913;50.660;7.834;2022-11-20T08:20:34;96643.41;;;1.54;100.00
3796;BME280;1913;50.660;7.834;2022-11-20T08:23:01;96643.72;;;1.43;100.00
3796;BME280;1913;50.660;7.834;2022-11-20T08:25:28;96647.44;;;1.49;100.00
3796;BME280;1913;50.660;7.834;2022-11-20T08:27:54;96644.53;;;1.52;100.00
3796;BME280;1913;50.660;7.834;2022-11-20T08:30:19;96640.63;;;1.48;100.00
3796;BME280;1913;50.660;7.834;2022-11-20T08:32:44;96631.09;;;1.56;100.00
3796;BME280;1913;50.660;7.834;2022-11-20T08:35:10;96639.69;;;1.65;100.00
3796;BME280;1913;50.660;7.834;2022-11-20T08:37:35;96636.78;;;1.68;100.00
3796;BME280;1913;50.660;7.834;2022-11-20T08:40:02;96639.34;;;1.60;100.00
3796;BME280;1913;50.660;7.834;2022-11-20T08:42:28;96634.19;;;1.68;100.00
3796;BME280;1913;50.660;7.834;2022-11-20T08:44:53;96643.41;;;1.71;100.00
3796;BME280;1913;50.660;7.834;2022-11-20T08:47:18;96634.84;;;1.62;100.00
3796;BME280;1913;50.660;7.834;2022-11-20T08:49:44;96631.28;;;1.79;100.00
3796;BME280;1913;50.660;7.834;2022-11-20T08:52:09;96635.00;;;1.77;100.00
3796;BME280;1913;50.660;7.834;2022-11-20T08:54:35;96633.22;;;1.77;100.00
3796;BME280;1913;50.660;7.834;2022-11-20T08:57:00;96637.78;;;1.83;100.00
3796;BME280;1913;50.660;7.834;2022-11-20T08:59:25;96644.88;;;1.81;100.00
3796;BME280;1913;50.660;7.834;2022-11-20T09:01:51;96639.06;;;1.96;100.00
3796;BME280;1913;50.660;7.834;2022-11-20T09:04:16;96634.06;;;1.94;100.00
3796;BME280;1913;50.660;7.834;2022-11-20T09:06:42;96630.34;;;1.97;100.00
3796;BME280;1913;50.660;7.834;2022-11-20T09:09:07;96634.88;;;2.11;100.00
3796;BME280;1913;50.660;7.834;2022-11-20T09:11:34;96634.38;;;2.15;100.00
3796;BME280;1913;50.660;7.834;2022-11-20T09:14:00;96638.28;;;2.28;100.00
3796;BME280;1913;50.660;7.834;2022-11-20T09:16:27;96636.44;;;2.45;100.00
3796;BME280;1913;50.660;7.834;2022-11-20T09:18:53;96634.84;;;2.44;100.00
3796;BME280;1913;50.660;7.834;2022-11-20T09:21:18;96633.50;;;2.56;100.00
3796;BME280;1913;50.660;7.834;2022-11-20T09:23:44;96638.06;;;2.54;100.00
3796;BME280;1913;50.660;7.834;2022-11-20T09:26:12;96633.81;;;2.69;100.00
3796;BME280;1913;50.660;7.834;2022-11-20T09:28:38;96639.13;;;2.76;100.00
3796;BME280;1913;50.660;7.834;2022-11-20T09:31:36;96639.56;;;2.96;100.00
3796;BME280;1913;50.660;7.834;2022-11-20T09:34:02;96647.13;;;3.05;100.00
3796;BME280;1913;50.660;7.834;2022-11-20T09:36:27;96642.75;;;3.14;100.00
3796;BME280;1913;50.660;7.834;2022-11-20T09:38:52;96641.91;;;3.22;100.00
3796;BME280;1913;50.660;7.834;2022-11-20T09:47:20;96645.94;;;2.85;100.00
3796;BME280;1913;50.660;7.834;2022-11-20T09:52:41;96632.84;;;2.62;100.00
3796;BME280;1913;50.660;7.834;2022-11-20T09:55:12;96632.53;;;2.57;100.00
3796;BME280;1913;50.660;7.834;2022-11-20T09:57:42;96631.19;;;2.69;100.00
3796;BME280;1913;50.660;7.834;2022-11-20T10:00:11;96633.91;;;2.84;100.00
3796;BME280;1913;50.660;7.834;2022-11-20T10:05:39;96632.81;;;2.70;100.00
3796;BME280;1913;50.660;7.834;2022-11-20T10:10:43;96637.06;;;2.71;100.00
3796;BME280;1913;50.660;7.834;2022-11-20T10:29:42;96592.13;;;2.71;100.00
3796;BME280;1913;50.660;7.834;2022-11-20T10:32:15;96596.25;;;2.88;100.00
3796;BME280;1913;50.660;7.834;2022-11-20T10:34:52;96600.41;;;3.14;100.00
3796;BME280;1913;50.660;7.834;2022-11-20T10:37:28;96598.59;;;3.14;100.00
3796;BME280;1913;50.660;7.834;2022-11-20T10:40:05;96592.53;;;3.53;100.00
3796;BME280;1913;50.660;7.834;2022-11-20T10:42:46;96595.69;;;3.17;100.00
3796;BME280;1913;50.660;7.834;2022-11-20T10:47:40;96590.50;;;3.40;100.00
3796;BME280;1913;50.660;7.834;2022-11-20T10:50:19;96592.44;;;3.15;100.00
3796;BME280;1913;50.660;7.834;2022-11-20T10:54:01;96582.66;;;2.86;100.00
3796;BME280;1913;50.660;7.834;2022-11-20T10:55:59;96578.94;;;2.88;100.00
3796;BME280;1913;50.660;7.834;2022-11-20T11:01:18;96579.16;;;3.10;100.00
3796;BME280;1913;50.660;7.834;2022-11-20T11:03:46;96575.31;;;2.98;100.00
3796;BME280;1913;50.660;7.834;2022-11-20T11:06:20;96569.41;;;3.12;100.00
3796;BME280;1913;50.660;7.834;2022-11-20T11:08:49;96570.44;;;2.95;100.00
3796;BME280;1913;50.660;7.834;2022-11-20T11:13:44;96571.06;;;3.05;100.00
3796;BME280;1913;50.660;7.834;2022-11-20T11:16:24;96567.25;;;2.84;100.00
3796;BME280;1913;50.660;7.834;2022-11-20T11:18:50;96568.09;;;2.85;100.00
3796;BME280;1913;50.660;7.834;2022-11-20T11:21:24;96571.63;;;2.84;100.00
3796;BME280;1913;50.660;7.834;2022-11-20T11:23:59;96566.78;;;2.81;100.00
3796;BME280;1913;50.660;7.834;2022-11-20T11:26:25;96552.25;;;2.72;100.00
3796;BME280;1913;50.660;7.834;2022-11-20T11:29:03;96541.44;;;2.91;100.00
3796;BME280;1913;50.660;7.834;2022-11-20T11:31:35;96541.03;;;3.02;100.00
3796;BME280;1913;50.660;7.834;2022-11-20T11:34:11;96551.56;;;3.09;100.00
3796;BME280;1913;50.660;7.834;2022-11-20T11:36:37;96550.28;;;3.36;100.00
3796;BME280;1913;50.660;7.834;2022-11-20T11:39:05;96540.38;;;3.08;100.00
3796;BME280;1913;50.660;7.834;2022-11-20T11:41:34;96544.81;;;3.31;100.00
3796;BME280;1913;50.660;7.834;2022-11-20T11:44:33;96535.91;;;3.25;100.00
3796;BME280;1913;50.660;7.834;2022-11-20T11:47:24;96527.84;;;3.12;100.00
3796;BME280;1913;50.660;7.834;2022-11-20T11:50:47;96530.38;;;2.97;100.00
3796;BME280;1913;50.660;7.834;2022-11-20T11:55:56;96525.91;;;3.37;100.00
3796;BME280;1913;50.660;7.834;2022-11-20T12:00:55;96510.25;;;3.68;100.00
3796;BME280;1913;50.660;7.834;2022-11-20T12:03:35;96514.66;;;3.68;100.00
3796;BME280;1913;50.660;7.834;2022-11-20T12:06:06;96519.75;;;3.76;100.00
3796;BME280;1913;50.660;7.834;2022-11-20T12:08:49;96521.13;;;3.87;100.00
3796;BME280;1913;50.660;7.834;2022-11-20T12:11:21;96515.97;;;4.01;100.00
3796;BME280;1913;50.660;7.834;2022-11-20T12:13:58;96512.78;;;3.76;100.00
3796;BME280;1913;50.660;7.834;2022-11-20T12:16:24;96506.44;;;3.79;100.00
3796;BME280;1913;50.660;7.834;2022-11-20T12:18:51;96501.88;;;3.96;100.00
3796;BME280;1913;50.660;7.834;2022-11-20T12:35:29;96482.25;;;3.93;100.00
3796;BME280;1913;50.660;7.834;2022-11-20T12:43:32;96469.06;;;3.95;100.00
3796;BME280;1913;50.660;7.834;2022-11-20T13:00:07;96452.22;;;3.91;100.00
3796;BME280;1913;50.660;7.834;2022-11-20T13:02:44;96444.00;;;4.17;100.00
3796;BME280;1913;50.660;7.834;2022-11-20T13:05:24;96439.22;;;4.20;100.00
3796;BME280;1913;50.660;7.834;2022-11-20T13:07:53;96438.31;;;4.43;100.00
3796;BME280;1913;50.660;7.834;2022-11-20T13:13:16;96435.34;;;4.46;100.00
3796;BME280;1913;50.660;7.834;2022-11-20T13:18:41;96438.44;;;4.71;100.00
3796;BME280;1913;50.660;7.834;2022-11-20T13:21:21;96436.19;;;4.68;100.00
3796;BME280;1913;50.660;7.834;2022-11-20T13:23:47;96432.66;;;4.75;100.00
3796;BME280;1913;50.660;7.834;2022-11-20T13:26:22;96423.38;;;4.66;100.00
3796;BME280;1913;50.660;7.834;2022-11-20T13:29:03;96420.00;;;4.72;100.00
3796;BME280;1913;50.660;7.834;2022-11-20T13:31:39;96420.22;;;4.71;100.00
3796;BME280;1913;50.660;7.834;2022-11-20T13:34:12;96412.56;;;4.69;100.00
3796;BME280;1913;50.660;7.834;2022-11-20T13:36:49;96417.50;;;4.43;100.00
3796;BME280;1913;50.660;7.834;2022-11-20T13:39:24;96417.88;;;4.25;100.00
3796;BME280;1913;50.660;7.834;2022-11-20T13:41:59;96416.06;;;4.40;100.00
3796;BME280;1913;50.660;7.834;2022-11-20T13:44:50;96402.06;;;4.41;100.00
3796;BME280;1913;50.660;7.834;2022-11-20T13:47:25;96400.00;;;4.37;100.00
3796;BME280;1913;50.660;7.834;2022-11-20T13:49:55;96392.09;;;4.45;100.00
3796;BME280;1913;50.660;7.834;2022-11-20T14:00:25;96378.09;;;4.46;100.00
3796;BME280;1913;50.660;7.834;2022-11-20T14:05:25;96367.44;;;4.62;100.00
3796;BME280;1913;50.660;7.834;2022-11-20T14:07:51;96363.75;;;4.71;100.00
3796;BME280;1913;50.660;7.834;2022-11-20T14:10:36;96355.28;;;4.48;100.00
3796;BME280;1913;50.660;7.834;2022-11-20T14:13:20;96354.84;;;4.59;100.00
3796;BME280;1913;50.660;7.834;2022-11-20T14:15:46;96356.25;;;4.62;100.00
3796;BME280;1913;50.660;7.834;2022-11-20T14:18:19;96353.19;;;4.58;100.00
3796;BME280;1913;50.660;7.834;2022-11-20T14:20:47;96347.41;;;4.56;100.00
3796;BME280;1913;50.660;7.834;2022-11-20T14:23:12;96349.63;;;4.59;100.00
3796;BME280;1913;50.660;7.834;2022-11-20T14:25:42;96351.16;;;4.53;100.00
3796;BME280;1913;50.660;7.834;2022-11-20T14:28:24;96343.78;;;4.57;100.00
3796;BME280;1913;50.660;7.834;2022-11-20T14:30:51;96350.56;;;4.37;100.00
3796;BME280;1913;50.660;7.834;2022-11-20T14:33:17;96341.38;;;4.34;100.00
3796;BME280;1913;50.660;7.834;2022-11-20T14:35:46;96343.09;;;4.27;100.00
3796;BME280;1913;50.660;7.834;2022-11-20T14:38:15;96332.84;;;4.25;100.00
3796;BME280;1913;50.660;7.834;2022-11-20T14:40:41;96336.19;;;4.19;100.00
3796;BME280;1913;50.660;7.834;2022-11-20T14:43:17;96327.13;;;4.15;100.00
3796;BME280;1913;50.660;7.834;2022-11-20T14:45:46;96323.28;;;4.11;100.00
3796;BME280;1913;50.660;7.834;2022-11-20T14:48:14;96325.25;;;4.09;100.00
3796;BME280;1913;50.660;7.834;2022-11-20T14:50:40;96321.25;;;4.06;100.00
3796;BME280;1913;50.660;7.834;2022-11-20T14:53:06;96319.81;;;4.04;100.00
3796;BME280;1913;50.660;7.834;2022-11-20T14:55:36;96317.56;;;4.01;100.00
3796;BME280;1913;50.660;7.834;2022-11-20T14:58:22;96309.97;;;3.99;100.00
3796;BME280;1913;50.660;7.834;2022-11-20T15:01:00;96311.00;;;4.05;100.00
3796;BME280;1913;50.660;7.834;2022-11-20T15:05:58;96301.38;;;3.99;100.00
3796;BME280;1913;50.660;7.834;2022-11-20T15:08:23;96294.00;;;4.02;100.00
3796;BME280;1913;50.660;7.834;2022-11-20T15:10:50;96304.94;;;3.98;100.00